sensor_id;sensor_type;location;lat;lon;timestamp;pressure;altitude;pressure_sealevel;temperature;humidity
58739;BME280;44512;53.046;18.604;2024-03-23T01:00:41;100779.20;;;11.04;73.77
58739;BME280;44512;53.046;18.604;2024-03-23T01:11:09;100769.60;;;11.02;73.35
58739;BME280;44512;53.046;18.604;2024-03-23T01:21:38;100771.05;;;10.98;73.05
58739;BME280;44512;53.046;18.604;2024-03-23T01:32:06;100775.80;;;10.95;72.69
58739;BME280;44512;53.046;18.604;2024-03-23T01:42:34;100778.29;;;10.90;72.38
58739;BME280;44512;53.046;18.604;2024-03-23T01:53:04;100754.11;;;10.82;72.19
58739;BME280;44512;53.046;18.604;2024-03-23T02:03:31;100748.06;;;10.80;72.02
58739;BME280;44512;53.046;18.604;2024-03-23T02:14:00;100750.33;;;10.77;71.98
58739;BME280;44512;53.046;18.604;2024-03-23T02:24:29;100749.05;;;10.73;71.99
58739;BME280;44512;53.046;18.604;2024-03-23T02:34:56;100738.62;;;10.69;71.96
58739;BME280;44512;53.046;18.604;2024-03-23T02:45:25;100716.55;;;10.66;71.89
58739;BME280;44512;53.046;18.604;2024-03-23T02:55:53;100710.69;;;10.62;71.94
58739;BME280;44512;53.046;18.604;2024-03-23T03:06:25;100689.42;;;10.59;71.76
58739;BME280;44512;53.046;18.604;2024-03-23T03:16:50;100691.95;;;10.61;71.73
58739;BME280;44512;53.046;18.604;2024-03-23T03:27:18;100678.20;;;10.56;71.70
58739;BME280;44512;53.046;18.604;2024-03-23T03:37:47;100663.17;;;10.53;71.75
58739;BME280;44512;53.046;18.604;2024-03-23T03:48:15;100656.09;;;10.52;71.68
58739;BME280;44512;53.046;18.604;2024-03-23T03:58:43;100652.55;;;10.52;71.59
58739;BME280;44512;53.046;18.604;2024-03-23T04:09:12;100641.11;;;10.50;71.59
58739;BME280;44512;53.046;18.604;2024-03-23T04:19:40;100641.72;;;10.45;71.93
58739;BME280;44512;53.046;18.604;2024-03-23T04:30:09;100650.02;;;10.43;71.97
58739;BME280;44512;53.046;18.604;2024-03-23T04:40:37;100624.82;;;10.43;71.92
58739;BME280;44512;53.046;18.604;2024-03-23T04:51:05;100620.25;;;10.43;71.97
58739;BME280;44512;53.046;18.604;2024-03-23T05:01:34;100619.84;;;10.40;72.03
58739;BME280;44512;53.046;18.604;2024-03-23T05:12:02;100619.40;;;10.36;72.12
58739;BME280;44512;53.046;18.604;2024-03-23T05:22:30;100614.37;;;10.33;72.17
58739;BME280;44512;53.046;18.604;2024-03-23T05:32:59;100613.13;;;10.29;72.19
58739;BME280;44512;53.046;18.604;2024-03-23T05:43:27;100593.54;;;10.27;72.20
58739;BME280;44512;53.046;18.604;2024-03-23T05:53:56;100568.59;;;10.25;72.08
58739;BME280;44512;53.046;18.604;2024-03-23T06:04:24;100570.61;;;10.23;72.40
58739;BME280;44512;53.046;18.604;2024-03-23T06:14:52;100555.41;;;10.22;72.02
58739;BME280;44512;53.046;18.604;2024-03-23T06:25:21;100537.91;;;10.18;71.59
58739;BME280;44512;53.046;18.604;2024-03-23T06:35:52;100533.14;;;10.13;71.35
58739;BME280;44512;53.046;18.604;2024-03-23T06:46:18;100502.97;;;10.16;71.37
58739;BME280;44512;53.046;18.604;2024-03-23T06:56:46;100515.27;;;10.19;71.29
58739;BME280;44512;53.046;18.604;2024-03-23T07:07:15;100522.11;;;10.15;70.87
58739;BME280;44512;53.046;18.604;2024-03-23T07:17:47;100530.62;;;10.12;70.51
58739;BME280;44512;53.046;18.604;2024-03-23T07:28:11;100521.89;;;10.10;70.10
58739;BME280;44512;53.046;18.604;2024-03-23T07:38:43;100520.41;;;10.07;70.46
58739;BME280;44512;53.046;18.604;2024-03-23T07:49:08;100492.13;;;10.10;70.91
58739;BME280;44512;53.046;18.604;2024-03-23T07:59:37;100480.28;;;10.11;71.17
58739;BME280;44512;53.046;18.604;2024-03-23T08:10:05;100455.54;;;10.14;71.64
58739;BME280;44512;53.046;18.604;2024-03-23T08:20:33;100457.20;;;10.15;71.56
58739;BME280;44512;53.046;18.604;2024-03-23T08:31:04;100466.53;;;10.12;71.20
58739;BME280;44512;53.046;18.604;2024-03-23T08:41:30;100430.14;;;10.08;70.85
58739;BME280;44512;53.046;18.604;2024-03-23T08:51:58;100414.53;;;10.04;71.14
58739;BME280;44512;53.046;18.604;2024-03-23T09:02:27;100402.44;;;9.93;70.76
58739;BME280;44512;53.046;18.604;2024-03-23T09:12:55;100378.52;;;9.97;70.45
58739;BME280;44512;53.046;18.604;2024-03-23T09:23:23;100370.84;;;10.07;70.83
58739;BME280;44512;53.046;18.604;2024-03-23T09:33:51;100360.41;;;9.90;70.05
58739;BME280;44512;53.046;18.604;2024-03-23T09:44:20;100347.10;;;9.82;69.46
58739;BME280;44512;53.046;18.604;2024-03-23T09:54:48;100349.59;;;9.77;69.33
58739;BME280;44512;53.046;18.604;2024-03-23T10:05:23;100337.31;;;9.81;69.72
58739;BME280;44512;53.046;18.604;2024-03-23T10:15:45;100275.96;;;9.62;69.89
58739;BME280;44512;53.046;18.604;2024-03-23T10:26:23;100322.88;;;9.41;70.27
58739;BME280;44512;53.046;18.604;2024-03-23T10:36:42;100333.32;;;9.57;69.66
58739;BME280;44512;53.046;18.604;2024-03-23T10:47:10;100308.57;;;9.54;69.38
58739;BME280;44512;53.046;18.604;2024-03-23T10:57:54;100285.06;;;9.41;69.65
58739;BME280;44512;53.046;18.604;2024-03-23T11:13:22;100241.56;;;9.16;69.79
58739;BME280;44512;53.046;18.604;2024-03-23T11:23:46;100242.60;;;9.15;69.92
58739;BME280;44512;53.046;18.604;2024-03-23T11:34:19;100221.00;;;9.15;70.04
58739;BME280;44512;53.046;18.604;2024-03-23T11:44:43;100179.02;;;9.06;70.05
58739;BME280;44512;53.046;18.604;2024-03-23T11:55:11;100176.10;;;9.07;69.72
58739;BME280;44512;53.046;18.604;2024-03-23T12:05:40;100161.95;;;8.99;69.73
58739;BME280;44512;53.046;18.604;2024-03-23T12:16:14;100159.68;;;8.96;69.88
58739;BME280;44512;53.046;18.604;2024-03-23T12:26:37;100147.39;;;8.86;69.89
58739;BME280;44512;53.046;18.604;2024-03-23T12:37:05;100112.53;;;8.92;70.15
58739;BME280;44512;53.046;18.604;2024-03-23T12:47:33;100099.20;;;8.83;70.49
58739;BME280;44512;53.046;18.604;2024-03-23T12:58:02;100085.31;;;8.80;70.66
58739;BME280;44512;53.046;18.604;2024-03-23T13:08:30;100078.88;;;8.81;70.75
58739;BME280;44512;53.046;18.604;2024-03-23T13:18:58;100043.54;;;8.63;70.33
58739;BME280;44512;53.046;18.604;2024-03-23T13:29:27;100034.41;;;8.57;70.02
58739;BME280;44512;53.046;18.604;2024-03-23T13:39:55;100023.40;;;8.52;70.18
58739;BME280;44512;53.046;18.604;2024-03-23T13:50:23;100006.60;;;8.43;70.39
58739;BME280;44512;53.046;18.604;2024-03-23T14:00:52;100012.38;;;8.40;70.66
58739;BME280;44512;53.046;18.604;2024-03-23T14:11:20;100026.65;;;8.34;70.45
58739;BME280;44512;53.046;18.604;2024-03-23T14:21:49;100010.64;;;8.26;70.10
58739;BME280;44512;53.046;18.604;2024-03-23T14:32:17;100021.80;;;8.16;70.33
58739;BME280;44512;53.046;18.604;2024-03-23T14:42:45;100039.39;;;8.05;70.58
58739;BME280;44512;53.046;18.604;2024-03-23T14:53:14;100076.13;;;8.13;69.79
58739;BME280;44512;53.046;18.604;2024-03-23T15:03:42;100122.29;;;7.97;69.28
58739;BME280;44512;53.046;18.604;2024-03-23T15:14:11;100162.91;;;7.67;69.26
58739;BME280;44512;53.046;18.604;2024-03-23T15:24:39;100206.83;;;7.68;68.68
58739;BME280;44512;53.046;18.604;2024-03-23T15:35:07;100200.19;;;7.92;67.78
58739;BME280;44512;53.046;18.604;2024-03-23T15:45:36;100219.44;;;7.89;67.39
58739;BME280;44512;53.046;18.604;2024-03-23T15:56:04;100230.12;;;7.75;67.62
58739;BME280;44512;53.046;18.604;2024-03-23T16:06:33;100221.91;;;7.62;68.08
58739;BME280;44512;53.046;18.604;2024-03-23T16:17:01;100256.87;;;7.55;67.90
58739;BME280;44512;53.046;18.604;2024-03-23T16:27:29;100286.44;;;7.70;67.32
58739;BME280;44512;53.046;18.604;2024-03-23T16:37:58;100320.80;;;7.68;67.16
58739;BME280;44512;53.046;18.604;2024-03-23T16:48:27;100330.69;;;7.61;67.04
58739;BME280;44512;53.046;18.604;2024-03-23T16:58:54;100332.34;;;7.62;67.00
58739;BME280;44512;53.046;18.604;2024-03-23T17:09:23;100306.18;;;7.56;66.84
58739;BME280;44512;53.046;18.604;2024-03-23T17:20:00;100335.91;;;7.48;66.71
58739;BME280;44512;53.046;18.604;2024-03-23T17:30:20;100374.65;;;7.47;66.78
58739;BME280;44512;53.046;18.604;2024-03-23T17:40:48;100384.30;;;7.41;66.73
58739;BME280;44512;53.046;18.604;2024-03-23T17:51:16;100401.02;;;7.37;66.62
58739;BME280;44512;53.046;18.604;2024-03-23T18:01:45;100402.05;;;7.36;66.58
58739;BME280;44512;53.046;18.604;2024-03-23T18:12:13;100409.45;;;7.34;66.62
58739;BME280;44512;53.046;18.604;2024-03-23T18:22:42;100422.29;;;7.31;66.79
58739;BME280;44512;53.046;18.604;2024-03-23T18:33:10;100461.56;;;7.26;66.87
58739;BME280;44512;53.046;18.604;2024-03-23T18:43:39;100420.27;;;7.19;66.99
58739;BME280;44512;53.046;18.604;2024-03-23T18:54:07;100440.49;;;7.15;67.04
58739;BME280;44512;53.046;18.604;2024-03-23T19:04:35;100525.37;;;7.02;67.29
58739;BME280;44512;53.046;18.604;2024-03-23T19:15:07;100524.98;;;6.91;67.62
58739;BME280;44512;53.046;18.604;2024-03-23T19:25:33;100507.22;;;6.82;67.79
58739;BME280;44512;53.046;18.604;2024-03-23T19:36:01;100533.84;;;6.76;67.72
58739;BME280;44512;53.046;18.604;2024-03-23T19:46:29;100573.95;;;6.63;67.81
58739;BME280;44512;53.046;18.604;2024-03-23T19:56:57;100583.80;;;6.48;67.90
58739;BME280;44512;53.046;18.604;2024-03-23T20:07:26;100569.74;;;6.38;68.11
58739;BME280;44512;53.046;18.604;2024-03-23T20:17:54;100592.30;;;6.29;67.98
58739;BME280;44512;53.046;18.604;2024-03-23T20:28:24;100568.48;;;6.25;67.88
58739;BME280;44512;53.046;18.604;2024-03-23T20:38:51;100551.05;;;6.13;67.76
58739;BME280;44512;53.046;18.604;2024-03-23T20:49:19;100570.26;;;6.02;67.73
58739;BME280;44512;53.046;18.604;2024-03-23T20:59:48;100551.13;;;5.97;67.80
58739;BME280;44512;53.046;18.604;2024-03-23T21:10:16;100535.35;;;5.94;67.76
58739;BME280;44512;53.046;18.604;2024-03-23T21:20:45;100523.95;;;5.92;67.59
58739;BME280;44512;53.046;18.604;2024-03-23T21:31:13;100510.19;;;5.95;67.38
58739;BME280;44512;53.046;18.604;2024-03-23T21:41:44;100494.41;;;5.92;67.14
58739;BME280;44512;53.046;18.604;2024-03-23T21:52:10;100516.38;;;5.87;66.99
58739;BME280;44512;53.046;18.604;2024-03-23T22:02:38;100508.52;;;5.86;66.81
58739;BME280;44512;53.046;18.604;2024-03-23T22:13:07;100487.05;;;5.78;66.85
58739;BME280;44512;53.046;18.604;2024-03-23T22:23:35;100471.98;;;5.68;66.89
58739;BME280;44512;53.046;18.604;2024-03-23T22:34:04;100485.09;;;5.63;66.92
58739;BME280;44512;53.046;18.604;2024-03-23T22:44:32;100477.58;;;5.59;66.96
58739;BME280;44512;53.046;18.604;2024-03-23T22:55:00;100470.05;;;5.54;67.02
58739;BME280;44512;53.046;18.604;2024-03-23T23:05:29;100462.02;;;5.46;67.15
58739;BME280;44512;53.046;18.604;2024-03-23T23:15:58;100451.01;;;5.33;67.54
58739;BME280;44512;53.046;18.604;2024-03-23T23:26:26;100439.27;;;5.26;67.81
58739;BME280;44512;53.046;18.604;2024-03-23T23:36:54;100441.63;;;5.20;68.03
58739;BME280;44512;53.046;18.604;2024-03-23T23:47:23;100448.71;;;5.13;68.37
58739;BME280;44512;53.046;18.604;2024-03-23T23:57:51;100438.98;;;5.12;68.60
